Talcottville, Connecticut
Current Conditions -  °F | °C
As of 9:31 AM on Tuesday 27 Jan 2015 (Local Time) from KHFD Reporting Station
Light Snow Light Snow  
Wind Chill:   Ceiling: 1200
Heat Index: 19°   Visibility: 0.25mi
Dew Point: 14°   Wind: 16mph
Humidity: 81%   Direction: 350°N
Pressure: 29.62"   Gusts: 26mph
Location:  41.837°N, 72.4608°W
Report Text: KHFD 271431Z 35014G23KT 1/4SM -SN VV012 M07/M10 A2962 RMK AO2 PK WND 35028/1420 P0001 T10721100 $
Loading
Personal Weather Stations






























Interactive Weather Map New forecast layout! Learn more

10-Day Weather Forecast

Advertisements
Track Severe Weather on mobile